Time;durP1;ratioP1;P1;durP2;ratioP2;P2;SDS_P1;SDS_P2;PMS_P1;PMS_P2;Temp;Humidity;BMP_temperature;BMP_pressure;BME280_temperature;BME280_humidity;BME280_pressure;Samples;Min_cycle;Max_cycle;Signal;HPM_P1;HPM_P2
2022/12/23 00:00:15;;;;;;;4.45;2.30;;;11.60;99.90;;;;;;4947306;28;20295;-75
2022/12/23 00:02:41;;;;;;;4.15;2.20;;;11.60;99.90;;;;;;4951443;28;20271;-74
2022/12/23 00:05:07;;;;;;;6.45;2.65;;;11.60;99.90;;;;;;4949925;28;20227;-75
2022/12/23 00:07:33;;;;;;;4.32;2.10;;;11.60;99.90;;;;;;4963714;28;20207;-75
2022/12/23 00:10:01;;;;;;;4.10;2.40;;;11.60;99.90;;;;;;4954429;28;20181;-73
2022/12/23 00:15:12;;;;;;;3.47;2.53;;;11.60;99.90;;;;;;4967678;28;20328;-74
2022/12/23 00:17:42;;;;;;;3.15;2.05;;;11.60;99.90;;;;;;4947977;28;20191;-72
2022/12/23 00:20:10;;;;;;;4.30;2.22;;;11.60;99.90;;;;;;4962378;28;20187;-73
2022/12/23 00:25:38;;;;;;;3.90;2.30;;;11.60;99.90;;;;;;4974065;28;20187;-73
2022/12/23 00:28:10;;;;;;;3.67;2.55;;;11.50;99.90;;;;;;4952413;28;20208;-72
2022/12/23 00:30:37;;;;;;;3.78;2.13;;;11.60;99.90;;;;;;4949808;28;20463;-74
2022/12/23 00:33:03;;;;;;;3.60;2.15;;;11.50;99.90;;;;;;4958256;28;20211;-73
2022/12/23 00:35:32;;;;;;;4.72;2.10;;;11.50;99.90;;;;;;4954423;28;20191;-73
2022/12/23 00:37:59;;;;;;;4.95;2.65;;;11.50;99.90;;;;;;4948074;28;20180;-73
2022/12/23 00:43:09;;;;;;;4.35;2.83;;;11.60;99.90;;;;;;4961897;28;20187;-73
2022/12/23 00:45:35;;;;;;;3.38;2.25;;;11.50;99.90;;;;;;4954947;28;20180;-73
2022/12/23 00:50:49;;;;;;;3.38;2.08;;;11.50;99.90;;;;;;4957562;28;20191;-73
2022/12/23 00:53:15;;;;;;;3.38;2.20;;;11.50;99.90;;;;;;4965836;28;21963;-74
2022/12/23 00:55:43;;;;;;;2.50;1.83;;;11.50;99.90;;;;;;4961228;28;20204;-73
2022/12/23 00:58:08;;;;;;;2.70;1.67;;;11.50;99.90;;;;;;4954039;28;20187;-75
2022/12/23 01:06:07;;;;;;;2.17;1.45;;;11.60;99.90;;;;;;4972465;28;20254;-73
2022/12/23 01:08:33;;;;;;;2.47;1.50;;;11.60;99.90;;;;;;4948365;28;20212;-73
2022/12/23 01:11:05;;;;;;;2.53;1.60;;;11.60;99.90;;;;;;4958172;28;20194;-73
2022/12/23 01:13:32;;;;;;;2.33;1.50;;;11.60;99.90;;;;;;4957865;28;20196;-73
2022/12/23 01:16:04;;;;;;;3.55;1.70;;;11.60;99.90;;;;;;4945483;29;20181;-73
2022/12/23 01:18:29;;;;;;;3.50;1.98;;;11.70;99.90;;;;;;4960516;28;20195;-72
2022/12/23 01:21:01;;;;;;;2.92;1.40;;;11.70;99.90;;;;;;4952349;28;20206;-73
2022/12/23 01:23:29;;;;;;;1.80;1.42;;;11.70;99.90;;;;;;4961008;28;21449;-72
2022/12/23 01:26:00;;;;;;;1.85;1.20;;;11.70;99.90;;;;;;4978001;28;20172;-73
2022/12/23 01:28:30;;;;;;;1.75;0.90;;;11.70;99.90;;;;;;4950910;28;20379;-74
2022/12/23 01:30:58;;;;;;;2.10;1.10;;;11.70;99.90;;;;;;4943461;28;20177;-73
2022/12/23 01:33:27;;;;;;;2.47;1.17;;;11.70;99.90;;;;;;4981613;28;20179;-73
2022/12/23 01:35:59;;;;;;;1.77;0.98;;;11.70;99.90;;;;;;4967710;28;20176;-73
2022/12/23 01:38:30;;;;;;;1.20;0.80;;;11.70;99.90;;;;;;4958930;28;20280;-73
2022/12/23 01:40:56;;;;;;;1.42;0.90;;;11.70;99.90;;;;;;4959477;28;20290;-73
2022/12/23 01:43:25;;;;;;;0.80;0.60;;;11.70;99.90;;;;;;4958700;28;20263;-73
2022/12/23 01:45:51;;;;;;;1.13;0.57;;;11.70;99.90;;;;;;4954135;28;21606;-73
2022/12/23 01:48:23;;;;;;;0.90;0.70;;;11.70;99.90;;;;;;4971950;28;20200;-73
2022/12/23 01:50:54;;;;;;;1.00;0.70;;;11.70;99.90;;;;;;4969166;28;20198;-73
2022/12/23 01:53:26;;;;;;;1.20;0.63;;;11.80;99.90;;;;;;4953134;28;20290;-73
2022/12/23 01:55:58;;;;;;;0.50;0.50;;;11.70;99.90;;;;;;4960296;28;20271;-74
2022/12/23 01:58:32;;;;;;;0.70;0.60;;;11.70;99.90;;;;;;4951661;28;20175;-73
2022/12/23 02:03:46;;;;;;;0.70;0.50;;;11.70;99.90;;;;;;4972780;28;20898;-73
2022/12/23 02:09:35;;;;;;;1.30;0.50;;;11.70;99.90;;;;;;4927175;28;20204;-73
2022/12/23 02:12:20;;;;;;;0.40;0.40;;;11.70;99.90;;;;;;4970320;28;20259;-73
2022/12/23 02:18:19;;;;;;;0.90;0.55;;;11.70;99.90;;;;;;4968726;28;20207;-73
2022/12/23 02:21:33;;;;;;;0.43;0.30;;;11.70;99.90;;;;;;4957599;28;20196;-73
2022/12/23 02:24:22;;;;;;;0.45;0.40;;;11.80;99.90;;;;;;4935171;28;20193;-73
2022/12/23 02:27:08;;;;;;;1.02;0.50;;;11.80;99.90;;;;;;4910398;28;20291;-73
2022/12/23 02:30:05;;;;;;;0.70;0.45;;;11.80;99.90;;;;;;4949270;28;20184;-73
2022/12/23 02:32:49;;;;;;;1.27;0.77;;;11.80;99.90;;;;;;4968186;28;20187;-73
2022/12/23 02:35:32;;;;;;;0.68;0.47;;;11.80;99.90;;;;;;4949021;28;20168;-73
2022/12/23 02:38:16;;;;;;;0.85;0.65;;;11.80;99.90;;;;;;4947897;28;20172;-73
2022/12/23 02:40:52;;;;;;;0.70;0.50;;;11.80;99.90;;;;;;4948845;28;20204;-73
2022/12/23 02:43:30;;;;;;;0.95;0.70;;;11.80;99.90;;;;;;4954162;28;20179;-73
2022/12/23 02:46:05;;;;;;;0.77;0.52;;;11.80;99.90;;;;;;4952826;28;20189;-73
2022/12/23 02:48:46;;;;;;;0.52;0.40;;;11.80;99.90;;;;;;4947180;28;20196;-73
2022/12/23 02:51:14;;;;;;;0.63;0.32;;;11.80;99.90;;;;;;4964745;28;20172;-73
2022/12/23 02:53:47;;;;;;;0.30;0.28;;;11.80;99.90;;;;;;4971332;28;20208;-75
2022/12/23 02:56:16;;;;;;;0.57;0.40;;;11.80;99.90;;;;;;4967439;28;20188;-73
2022/12/23 02:59:22;;;;;;;0.98;0.47;;;11.80;99.90;;;;;;4949670;28;20180;-72
2022/12/23 03:01:48;;;;;;;2.15;1.23;;;11.80;99.90;;;;;;4950167;28;20275;-73
2022/12/23 03:04:14;;;;;;;1.40;0.60;;;11.80;99.90;;;;;;4959171;28;20202;-74
2022/12/23 03:06:46;;;;;;;0.80;0.50;;;11.70;99.90;;;;;;4955326;28;20295;-74
2022/12/23 03:09:29;;;;;;;0.60;0.47;;;11.80;99.90;;;;;;4953616;28;20187;-74
2022/12/23 03:12:14;;;;;;;1.02;0.50;;;11.80;99.90;;;;;;4958686;28;20184;-73
2022/12/23 03:14:58;;;;;;;1.20;0.50;;;11.80;99.90;;;;;;4954676;28;20191;-73
2022/12/23 03:17:38;;;;;;;1.63;0.80;;;11.80;99.90;;;;;;4956561;28;20192;-73
2022/12/23 03:20:33;;;;;;;0.90;0.70;;;11.80;99.90;;;;;;4962672;28;20206;-73
2022/12/23 03:23:16;;;;;;;1.75;1.00;;;11.90;99.90;;;;;;4955971;28;20180;-73
2022/12/23 03:26:20;;;;;;;1.13;0.98;;;11.90;99.90;;;;;;4954711;28;20200;-74
2022/12/23 03:28:57;;;;;;;2.35;0.98;;;11.90;99.90;;;;;;4969013;28;20287;-74
2022/12/23 03:31:29;;;;;;;2.22;0.85;;;11.90;99.90;;;;;;4972381;28;20179;-73
2022/12/23 03:34:07;;;;;;;3.85;1.30;;;12.00;99.90;;;;;;4947199;28;20197;-73
2022/12/23 03:36:39;;;;;;;2.60;1.10;;;11.90;99.90;;;;;;4955141;28;20186;-73
2022/12/23 03:39:14;;;;;;;2.92;1.38;;;12.00;99.90;;;;;;4958255;28;20184;-74
2022/12/23 03:41:46;;;;;;;1.92;1.10;;;12.10;99.90;;;;;;4952131;28;20187;-72
2022/12/23 03:44:23;;;;;;;2.10;1.20;;;12.10;99.90;;;;;;4946965;28;20183;-73
2022/12/23 03:47:19;;;;;;;2.10;1.10;;;12.10;99.90;;;;;;4950115;28;20369;-74
2022/12/23 03:49:52;;;;;;;3.20;1.33;;;12.10;99.90;;;;;;4952743;28;20194;-74
2022/12/23 03:52:29;;;;;;;4.45;1.40;;;12.20;99.90;;;;;;4959919;28;20176;-73
2022/12/23 03:55:00;;;;;;;2.70;1.40;;;12.20;99.90;;;;;;4956602;28;21584;-72
2022/12/23 03:57:36;;;;;;;2.80;1.40;;;12.20;99.90;;;;;;4955113;28;20176;-72
2022/12/23 04:00:03;;;;;;;3.88;1.35;;;12.20;99.90;;;;;;4957583;28;20199;-72
2022/12/23 04:02:39;;;;;;;2.85;1.45;;;12.20;99.90;;;;;;4949463;29;20176;-72
2022/12/23 04:05:28;;;;;;;2.25;1.27;;;12.20;99.90;;;;;;4956107;28;20280;-73
2022/12/23 04:08:12;;;;;;;1.48;1.00;;;12.30;99.90;;;;;;4952710;28;20221;-72
2022/12/23 04:10:43;;;;;;;2.38;1.20;;;12.20;99.90;;;;;;4963144;28;20271;-73
2022/12/23 04:13:09;;;;;;;1.75;1.00;;;12.30;99.90;;;;;;4963757;28;20198;-73
2022/12/23 04:15:40;;;;;;;2.75;1.15;;;12.30;99.90;;;;;;4955338;28;20187;-74
2022/12/23 04:18:08;;;;;;;1.85;1.13;;;12.20;99.90;;;;;;4944579;28;20192;-73
2022/12/23 04:20:35;;;;;;;2.50;1.30;;;12.20;99.90;;;;;;4951435;28;20184;-74
2022/12/23 04:23:01;;;;;;;1.33;0.98;;;12.20;99.90;;;;;;4945295;28;20181;-73
2022/12/23 04:25:29;;;;;;;2.88;1.27;;;12.20;99.90;;;;;;4949670;28;20437;-74
2022/12/23 04:27:57;;;;;;;3.55;1.23;;;12.20;99.90;;;;;;4952158;28;20213;-74
2022/12/23 04:30:23;;;;;;;4.07;1.30;;;12.20;99.90;;;;;;4958537;28;20208;-74
2022/12/23 04:32:53;;;;;;;1.58;1.05;;;12.20;99.90;;;;;;4956744;28;20196;-74
2022/12/23 04:35:19;;;;;;;2.05;1.17;;;12.10;99.90;;;;;;4952608;28;20192;-74
2022/12/23 04:37:46;;;;;;;2.97;1.27;;;12.10;99.90;;;;;;4955474;28;20190;-74
2022/12/23 04:40:17;;;;;;;2.10;1.30;;;12.10;99.90;;;;;;4955470;28;20180;-74
2022/12/23 04:42:45;;;;;;;2.67;1.30;;;12.10;99.90;;;;;;4947720;28;20190;-74
2022/12/23 04:45:13;;;;;;;3.45;1.20;;;12.20;99.90;;;;;;4948829;28;20192;-73
2022/12/23 04:47:39;;;;;;;5.18;1.23;;;12.10;99.90;;;;;;4947293;28;20220;-74
2022/12/23 04:50:08;;;;;;;4.82;1.60;;;12.00;99.90;;;;;;4955496;28;20191;-74
2022/12/23 04:52:36;;;;;;;2.47;1.27;;;12.00;99.90;;;;;;4958868;28;20263;-73
2022/12/23 04:55:01;;;;;;;2.00;1.25;;;12.00;99.90;;;;;;4957566;28;20177;-73
2022/12/23 04:57:27;;;;;;;4.00;1.40;;;11.90;99.90;;;;;;4954486;28;20176;-73
2022/12/23 04:59:54;;;;;;;2.03;1.25;;;11.90;99.90;;;;;;4948764;28;20200;-73
2022/12/23 05:02:20;;;;;;;2.85;1.42;;;11.90;99.90;;;;;;4957548;28;20207;-73
2022/12/23 05:04:46;;;;;;;3.10;1.20;;;11.90;99.90;;;;;;4954548;28;20263;-73
2022/12/23 05:07:14;;;;;;;2.88;1.55;;;11.90;99.90;;;;;;4962204;28;20512;-73
2022/12/23 05:09:39;;;;;;;3.13;1.70;;;11.90;99.90;;;;;;4957788;28;20236;-73
2022/12/23 05:12:05;;;;;;;3.53;1.20;;;11.80;99.90;;;;;;4947978;28;20204;-73
2022/12/23 05:14:30;;;;;;;2.92;1.40;;;11.80;99.90;;;;;;4957926;28;20172;-73
2022/12/23 05:16:58;;;;;;;2.55;1.10;;;11.90;99.90;;;;;;4966482;28;20288;-73
2022/12/23 05:19:26;;;;;;;2.03;1.00;;;11.80;99.90;;;;;;4956065;28;20247;-72
2022/12/23 05:21:52;;;;;;;2.00;1.20;;;11.80;99.90;;;;;;4954193;28;20204;-73
2022/12/23 05:24:17;;;;;;;1.38;0.95;;;11.80;99.90;;;;;;4957348;28;20223;-73
2022/12/23 05:26:47;;;;;;;2.30;1.00;;;11.80;99.90;;;;;;4949543;28;20189;-73
2022/12/23 05:29:12;;;;;;;2.47;0.90;;;11.80;99.90;;;;;;4957579;28;20176;-73
2022/12/23 05:31:38;;;;;;;2.70;1.20;;;11.80;99.90;;;;;;4958507;28;20310;-73
2022/12/23 05:34:04;;;;;;;1.90;0.93;;;11.80;99.90;;;;;;4947533;28;20180;-73
2022/12/23 05:36:30;;;;;;;3.25;1.58;;;11.80;99.90;;;;;;4976687;28;20226;-73
2022/12/23 05:38:57;;;;;;;2.33;1.27;;;11.80;99.90;;;;;;4956682;28;20266;-74
2022/12/23 05:41:23;;;;;;;1.65;1.05;;;11.80;99.90;;;;;;4958862;28;20208;-73
2022/12/23 05:43:51;;;;;;;3.10;0.95;;;11.80;99.90;;;;;;4956068;28;20303;-73
2022/12/23 05:46:16;;;;;;;3.28;0.95;;;11.80;99.90;;;;;;4962436;28;20270;-73
2022/12/23 05:48:42;;;;;;;1.80;0.85;;;11.80;99.90;;;;;;4964702;28;20276;-79
2022/12/23 05:51:07;;;;;;;2.47;0.90;;;11.80;99.90;;;;;;4961714;28;20200;-80
2022/12/23 05:53:33;;;;;;;2.90;0.85;;;11.80;99.90;;;;;;4952015;28;20185;-80
2022/12/23 05:56:05;;;;;;;2.08;0.80;;;11.80;99.90;;;;;;4965642;28;20239;-81
2022/12/23 05:58:36;;;;;;;2.40;0.82;;;11.80;99.90;;;;;;4954386;28;20255;-82
2022/12/23 06:01:02;;;;;;;0.98;0.73;;;11.80;99.90;;;;;;4966389;28;20180;-81
2022/12/23 06:03:30;;;;;;;2.00;0.93;;;11.80;99.90;;;;;;4950758;28;20192;-80
2022/12/23 06:05:56;;;;;;;2.10;0.80;;;12.00;99.90;;;;;;4946108;29;20181;-80
2022/12/23 06:08:24;;;;;;;1.95;1.00;;;11.90;99.90;;;;;;4953749;28;20203;-81
2022/12/23 06:10:53;;;;;;;0.85;0.63;;;11.80;99.90;;;;;;4964151;28;20207;-81
2022/12/23 06:13:18;;;;;;;1.73;0.68;;;11.80;99.90;;;;;;4952678;28;20204;-81
2022/12/23 06:15:44;;;;;;;3.42;0.85;;;11.80;99.90;;;;;;4959258;28;20180;-81
2022/12/23 06:18:13;;;;;;;1.80;0.85;;;11.90;99.90;;;;;;4974043;28;20346;-82
2022/12/23 06:20:38;;;;;;;2.40;0.85;;;11.90;99.90;;;;;;4946164;28;20360;-81
2022/12/23 06:23:04;;;;;;;2.67;0.93;;;11.90;99.90;;;;;;4955299;28;20184;-82
2022/12/23 06:25:29;;;;;;;0.95;0.70;;;11.90;99.90;;;;;;4951871;28;20264;-80
2022/12/23 06:27:55;;;;;;;1.35;0.70;;;11.90;99.90;;;;;;4954581;29;20257;-81
2022/12/23 06:30:23;;;;;;;1.50;0.80;;;11.90;99.90;;;;;;4953040;28;20283;-80
2022/12/23 06:32:49;;;;;;;1.77;0.73;;;11.90;99.90;;;;;;4951988;28;20187;-80
2022/12/23 06:35:19;;;;;;;1.73;0.70;;;11.90;99.90;;;;;;4959818;28;20266;-79
2022/12/23 06:37:45;;;;;;;1.85;0.93;;;11.90;99.90;;;;;;4951420;28;20322;-81
2022/12/23 06:40:11;;;;;;;1.52;0.75;;;11.80;99.90;;;;;;4957368;28;20207;-79
2022/12/23 06:42:39;;;;;;;1.20;0.73;;;11.80;99.90;;;;;;4951947;28;20242;-81
2022/12/23 06:45:05;;;;;;;2.03;0.80;;;11.80;99.90;;;;;;4961572;28;20173;-77
2022/12/23 06:47:31;;;;;;;3.72;1.20;;;11.80;99.90;;;;;;4967308;28;20215;-78
2022/12/23 06:49:57;;;;;;;2.13;1.05;;;11.80;99.90;;;;;;4955959;28;20175;-80
2022/12/23 06:52:25;;;;;;;2.38;1.00;;;11.80;99.90;;;;;;4951360;28;20227;-79
2022/12/23 06:54:50;;;;;;;2.22;0.90;;;11.80;99.90;;;;;;4957839;28;20207;-77
2022/12/23 06:57:18;;;;;;;2.10;0.90;;;11.70;99.90;;;;;;4947816;28;20172;-79
2022/12/23 06:59:46;;;;;;;1.85;0.80;;;11.70;99.90;;;;;;4959821;28;20188;-80
2022/12/23 07:02:11;;;;;;;1.45;0.82;;;11.70;99.90;;;;;;4954644;28;20190;-80
2022/12/23 07:04:37;;;;;;;1.77;0.80;;;11.60;99.90;;;;;;4959467;28;20192;-80
2022/12/23 07:07:03;;;;;;;2.38;0.93;;;11.70;99.90;;;;;;4955412;28;20294;-79
2022/12/23 07:09:30;;;;;;;2.15;1.20;;;11.70;99.90;;;;;;4954616;28;20180;-81
2022/12/23 07:11:56;;;;;;;1.65;1.00;;;11.70;99.90;;;;;;4957459;28;20172;-81
2022/12/23 07:14:26;;;;;;;2.03;0.85;;;11.70;99.90;;;;;;4945289;29;20192;-80
2022/12/23 07:16:52;;;;;;;1.58;0.85;;;11.70;99.90;;;;;;4957586;28;20405;-80
2022/12/23 07:19:18;;;;;;;3.70;1.20;;;11.70;99.90;;;;;;4951055;28;20180;-78
2022/12/23 07:21:44;;;;;;;2.00;1.00;;;11.60;99.90;;;;;;4955691;28;20173;-79
2022/12/23 07:24:12;;;;;;;1.90;0.95;;;11.60;99.90;;;;;;4953940;28;20180;-80
2022/12/23 07:26:37;;;;;;;2.10;0.90;;;11.60;99.90;;;;;;4957564;28;20219;-80
2022/12/23 07:29:05;;;;;;;1.30;0.98;;;11.70;99.90;;;;;;4956246;28;20212;-81
2022/12/23 07:31:31;;;;;;;2.42;1.60;;;11.70;99.90;;;;;;4950657;28;20191;-78
2022/12/23 07:33:59;;;;;;;2.30;1.30;;;11.70;99.90;;;;;;4953214;28;20180;-79
2022/12/23 07:36:24;;;;;;;1.75;1.15;;;11.70;99.90;;;;;;4941385;29;20192;-80
2022/12/23 07:38:50;;;;;;;1.90;1.10;;;11.70;99.90;;;;;;4945234;28;20204;-79
2022/12/23 07:41:19;;;;;;;2.92;1.20;;;11.70;99.90;;;;;;4958135;28;20188;-80
2022/12/23 07:43:45;;;;;;;2.33;1.20;;;11.70;99.90;;;;;;4965646;28;20267;-79
2022/12/23 07:46:10;;;;;;;1.08;0.90;;;11.70;99.90;;;;;;4957060;28;20287;-78
2022/12/23 07:48:38;;;;;;;2.20;1.00;;;11.80;99.90;;;;;;4963849;28;20270;-80
2022/12/23 07:51:04;;;;;;;2.45;0.93;;;11.80;99.90;;;;;;4953108;28;20232;-81
2022/12/23 07:53:29;;;;;;;2.22;1.02;;;11.80;99.90;;;;;;4955603;28;20219;-81
2022/12/23 07:55:58;;;;;;;2.13;1.10;;;11.80;99.90;;;;;;4954731;28;20176;-79
2022/12/23 07:58:24;;;;;;;1.40;1.00;;;11.90;99.90;;;;;;4955503;28;20187;-78
2022/12/23 08:00:49;;;;;;;2.15;1.17;;;11.80;99.90;;;;;;4956881;28;20172;-81
2022/12/23 08:03:17;;;;;;;2.90;1.20;;;11.90;99.90;;;;;;4948540;28;20203;-80
2022/12/23 08:05:43;;;;;;;3.70;1.30;;;11.90;99.90;;;;;;4957686;28;20194;-78
2022/12/23 08:08:08;;;;;;;2.33;1.45;;;11.90;99.90;;;;;;4949101;28;20200;-79
2022/12/23 08:10:36;;;;;;;2.95;1.50;;;11.90;99.90;;;;;;4978012;28;20177;-77
2022/12/23 08:13:02;;;;;;;3.53;1.90;;;11.90;99.90;;;;;;4963144;28;20188;-74
2022/12/23 08:15:32;;;;;;;1.98;1.60;;;11.90;99.90;;;;;;4962233;28;20199;-77
2022/12/23 08:18:00;;;;;;;3.00;1.85;;;11.90;99.90;;;;;;4951559;28;20433;-78
2022/12/23 08:20:26;;;;;;;3.50;2.00;;;11.90;99.90;;;;;;4965661;28;20183;-78
2022/12/23 08:22:51;;;;;;;3.60;2.03;;;11.90;99.90;;;;;;4974493;28;20176;-75
2022/12/23 08:25:17;;;;;;;2.42;1.80;;;11.90;99.90;;;;;;4953329;28;20263;-76
2022/12/23 08:27:42;;;;;;;2.10;1.60;;;11.90;99.90;;;;;;4951602;28;20322;-77
2022/12/23 08:30:11;;;;;;;2.35;1.70;;;11.90;99.90;;;;;;4955125;28;20172;-75
2022/12/23 08:32:36;;;;;;;2.50;1.40;;;11.90;99.90;;;;;;4953235;28;20271;-77
2022/12/23 08:35:02;;;;;;;2.75;1.45;;;11.90;99.90;;;;;;4956133;28;20291;-77
2022/12/23 08:37:28;;;;;;;2.40;1.70;;;11.90;99.90;;;;;;4949941;29;20264;-77
2022/12/23 08:39:54;;;;;;;3.78;1.45;;;11.90;99.90;;;;;;4954416;28;20184;-74
2022/12/23 08:42:22;;;;;;;3.53;2.10;;;11.90;99.90;;;;;;4953294;28;20184;-77
2022/12/23 08:44:50;;;;;;;3.80;1.77;;;12.00;99.90;;;;;;4953769;28;20205;-78
2022/12/23 08:47:15;;;;;;;3.05;1.52;;;11.90;99.90;;;;;;4953329;28;20215;-78
2022/12/23 08:49:41;;;;;;;3.00;1.70;;;11.90;99.90;;;;;;4967153;28;20363;-78
2022/12/23 08:52:06;;;;;;;2.35;1.50;;;12.00;99.90;;;;;;4950439;28;20395;-79
2022/12/23 08:54:32;;;;;;;2.40;1.55;;;11.90;99.90;;;;;;4957237;28;20268;-78
2022/12/23 08:56:58;;;;;;;2.50;1.63;;;12.00;99.90;;;;;;4945336;29;20243;-78
2022/12/23 08:59:26;;;;;;;4.50;1.52;;;12.00;99.90;;;;;;4946478;28;20199;-77
2022/12/23 09:01:51;;;;;;;3.78;1.55;;;12.10;99.90;;;;;;4971588;28;20211;-79
2022/12/23 09:04:17;;;;;;;2.35;1.30;;;12.00;99.90;;;;;;4949569;29;20177;-78
2022/12/23 09:06:44;;;;;;;2.88;1.42;;;12.10;99.90;;;;;;4948993;28;20183;-78
2022/12/23 09:09:14;;;;;;;2.70;1.63;;;12.10;99.90;;;;;;4964476;28;20437;-79
2022/12/23 09:11:40;;;;;;;2.88;1.90;;;12.10;99.90;;;;;;4949582;29;20263;-79
2022/12/23 09:14:08;;;;;;;2.80;1.85;;;12.10;99.90;;;;;;4951530;29;20240;-79
2022/12/23 09:16:39;;;;;;;3.78;2.10;;;12.10;99.90;;;;;;4947849;28;20199;-78
2022/12/23 09:19:06;;;;;;;3.75;1.58;;;12.10;99.90;;;;;;4955411;29;20173;-78
2022/12/23 09:21:34;;;;;;;3.22;2.03;;;12.10;99.90;;;;;;4958422;28;20195;-79
2022/12/23 09:24:02;;;;;;;2.40;1.88;;;12.10;99.90;;;;;;4957892;28;20168;-79
2022/12/23 09:26:30;;;;;;;3.17;1.90;;;12.10;99.90;;;;;;4957216;28;20191;-78
2022/12/23 09:28:59;;;;;;;3.10;1.60;;;12.10;99.90;;;;;;4952392;28;20291;-78
2022/12/23 09:31:25;;;;;;;2.38;1.60;;;12.10;99.90;;;;;;4952485;28;20184;-79
2022/12/23 09:33:52;;;;;;;3.95;1.77;;;12.10;99.90;;;;;;4942883;28;20271;-78
2022/12/23 09:36:21;;;;;;;2.63;1.75;;;12.10;99.90;;;;;;4958993;28;20180;-78
2022/12/23 09:38:54;;;;;;;3.92;2.08;;;12.10;99.90;;;;;;4957057;28;20177;-78
2022/12/23 09:41:38;;;;;;;2.88;1.73;;;12.10;99.90;;;;;;4958513;28;20196;-78
2022/12/23 09:44:30;;;;;;;3.63;1.92;;;12.00;99.90;;;;;;4960964;28;20203;-79
2022/12/23 09:47:00;;;;;;;2.92;1.90;;;12.10;99.90;;;;;;4958267;28;20243;-78
2022/12/23 09:49:26;;;;;;;3.90;1.95;;;12.00;99.90;;;;;;4954016;28;20175;-78
2022/12/23 09:52:01;;;;;;;4.13;1.67;;;12.00;99.90;;;;;;4954716;29;20172;-79
2022/12/23 09:54:30;;;;;;;3.45;1.75;;;12.00;99.90;;;;;;4945767;28;20203;-78
2022/12/23 09:57:25;;;;;;;3.35;1.70;;;12.00;99.90;;;;;;4944881;28;20173;-78
2022/12/23 09:59:59;;;;;;;2.95;1.52;;;11.90;99.90;;;;;;4952036;28;20184;-79
2022/12/23 10:03:00;;;;;;;2.10;1.40;;;11.90;99.90;;;;;;4961979;28;20217;-79
2022/12/23 10:06:07;;;;;;;2.05;1.40;;;11.90;99.90;;;;;;4951876;28;20199;-79
2022/12/23 10:08:42;;;;;;;1.92;1.42;;;11.90;99.90;;;;;;4951242;28;20204;-77
2022/12/23 10:11:27;;;;;;;2.53;1.35;;;11.90;99.90;;;;;;4973093;28;20177;-78
2022/12/23 10:14:14;;;;;;;2.40;1.70;;;11.90;99.90;;;;;;4966177;28;20211;-73
2022/12/23 10:17:17;;;;;;;2.03;1.40;;;11.90;99.90;;;;;;4947879;28;20203;-73
2022/12/23 10:19:48;;;;;;;2.80;1.40;;;11.90;99.90;;;;;;4942094;28;20226;-73
2022/12/23 10:22:22;;;;;;;3.13;1.40;;;12.00;99.90;;;;;;4954943;28;20198;-74
2022/12/23 10:24:48;;;;;;;2.00;1.40;;;12.00;99.90;;;;;;4958295;28;20238;-74
2022/12/23 10:27:23;;;;;;;3.65;1.73;;;12.00;99.90;;;;;;4960104;28;20515;-74
2022/12/23 10:29:48;;;;;;;1.80;1.40;;;12.10;99.90;;;;;;4959021;28;20176;-73
2022/12/23 10:32:40;;;;;;;2.58;1.50;;;12.10;99.90;;;;;;4952680;28;20283;-77
2022/12/23 10:35:21;;;;;;;1.80;1.50;;;12.10;99.90;;;;;;4972603;28;20187;-75
2022/12/23 10:37:56;;;;;;;3.08;1.50;;;12.10;99.90;;;;;;4943972;28;20196;-74
2022/12/23 10:40:38;;;;;;;1.65;1.23;;;12.10;99.90;;;;;;4959625;28;20259;-74
2022/12/23 10:43:30;;;;;;;3.90;1.70;;;12.20;99.90;;;;;;4950232;28;20187;-84
2022/12/23 10:46:00;;;;;;;3.28;1.60;;;12.20;99.90;;;;;;4965951;28;20192;-79
2022/12/23 10:48:56;;;;;;;2.17;1.80;;;12.30;99.90;;;;;;4957263;28;20203;-76
2022/12/23 10:51:43;;;;;;;4.10;2.33;;;12.20;99.90;;;;;;4959130;28;20275;-79
2022/12/23 10:54:15;;;;;;;2.20;1.70;;;12.20;99.90;;;;;;4955593;28;20192;-79
2022/12/23 10:56:41;;;;;;;2.17;1.50;;;12.30;99.90;;;;;;4954068;28;20176;-78
2022/12/23 10:59:14;;;;;;;2.25;1.30;;;12.20;99.90;;;;;;4961041;28;20180;-79
2022/12/23 11:01:41;;;;;;;2.15;1.25;;;12.30;99.90;;;;;;4956064;29;20204;-79
2022/12/23 11:04:17;;;;;;;1.73;1.33;;;12.20;99.90;;;;;;4957799;28;20250;-79
2022/12/23 11:06:49;;;;;;;2.25;1.30;;;12.20;99.90;;;;;;4954668;28;20182;-78
2022/12/23 11:09:24;;;;;;;1.92;1.30;;;12.20;99.90;;;;;;4941591;29;20184;-78
2022/12/23 11:11:56;;;;;;;1.85;1.30;;;12.20;99.90;;;;;;4956944;28;20480;-80
2022/12/23 11:14:34;;;;;;;2.00;1.10;;;12.20;99.90;;;;;;4957021;28;20176;-79
2022/12/23 11:17:04;;;;;;;1.55;1.00;;;12.20;99.90;;;;;;4960370;28;20215;-80
2022/12/23 11:19:32;;;;;;;1.85;1.05;;;12.20;99.90;;;;;;4941333;29;20168;-79
2022/12/23 11:22:01;;;;;;;2.47;1.13;;;12.20;99.90;;;;;;4949056;28;20195;-79
2022/12/23 11:24:32;;;;;;;1.35;1.20;;;12.20;99.90;;;;;;4959580;28;20184;-80
2022/12/23 11:27:04;;;;;;;1.95;1.38;;;12.20;99.90;;;;;;4975898;28;20180;-78
2022/12/23 11:29:32;;;;;;;3.55;1.35;;;12.20;99.90;;;;;;4950987;28;20425;-79
2022/12/23 11:32:00;;;;;;;2.00;1.38;;;12.20;99.90;;;;;;4955993;28;20169;-79
2022/12/23 11:34:30;;;;;;;2.00;1.40;;;12.10;99.90;;;;;;4958253;28;20172;-79
2022/12/23 11:37:00;;;;;;;3.40;1.58;;;12.10;99.90;;;;;;4952788;28;20180;-77
2022/12/23 11:39:36;;;;;;;2.55;1.55;;;12.00;99.90;;;;;;4949115;28;20188;-78
2022/12/23 11:42:16;;;;;;;2.88;1.50;;;12.10;99.90;;;;;;4940926;29;20189;-79
2022/12/23 11:44:45;;;;;;;2.45;1.75;;;12.00;99.90;;;;;;4950598;28;20187;-79
2022/12/23 11:47:35;;;;;;;3.28;1.70;;;12.00;99.90;;;;;;4959391;28;20176;-79
2022/12/23 11:50:08;;;;;;;3.25;1.70;;;12.00;99.90;;;;;;4959363;28;20239;-78
2022/12/23 11:52:36;;;;;;;2.33;1.52;;;12.00;99.90;;;;;;4959724;28;20199;-78
2022/12/23 11:55:04;;;;;;;1.60;1.10;;;11.90;99.90;;;;;;4956451;29;20183;-78
2022/12/23 11:57:43;;;;;;;2.50;1.33;;;11.90;99.90;;;;;;4949997;28;20172;-76
2022/12/23 12:00:27;;;;;;;2.20;1.60;;;11.90;99.90;;;;;;4959091;28;20203;-77
2022/12/23 12:03:02;;;;;;;2.63;1.42;;;11.80;99.90;;;;;;4958209;28;20183;-77
2022/12/23 12:05:45;;;;;;;2.70;1.40;;;11.80;99.90;;;;;;4959403;28;20183;-79
2022/12/23 12:08:14;;;;;;;3.15;1.55;;;11.70;99.90;;;;;;4956456;28;20211;-78
2022/12/23 12:10:41;;;;;;;3.30;1.55;;;11.70;99.90;;;;;;4970449;28;20187;-78
2022/12/23 12:13:19;;;;;;;2.78;1.30;;;11.70;99.90;;;;;;4958693;28;20168;-77
2022/12/23 12:16:03;;;;;;;3.28;1.50;;;11.60;99.90;;;;;;4955134;28;20195;-76
2022/12/23 12:18:32;;;;;;;2.15;1.33;;;11.60;99.90;;;;;;4952680;28;20271;-77
2022/12/23 12:21:04;;;;;;;2.35;1.65;;;11.50;99.90;;;;;;4959360;28;20208;-76
2022/12/23 12:23:41;;;;;;;3.20;1.60;;;11.50;99.90;;;;;;4959382;28;20237;-78
2022/12/23 12:26:27;;;;;;;2.10;1.48;;;11.50;99.90;;;;;;4942065;29;20260;-77
2022/12/23 12:28:59;;;;;;;2.90;1.60;;;11.40;99.90;;;;;;4958915;28;20195;-77
2022/12/23 12:31:46;;;;;;;1.77;1.40;;;11.40;99.90;;;;;;4957272;28;20199;-77
2022/12/23 12:34:20;;;;;;;2.20;1.50;;;11.30;99.90;;;;;;4954580;28;20175;-77
2022/12/23 12:37:15;;;;;;;2.97;1.67;;;11.30;99.90;;;;;;4940195;29;20176;-78
2022/12/23 12:39:51;;;;;;;2.28;1.42;;;11.30;99.90;;;;;;4939554;28;20255;-78
2022/12/23 12:42:33;;;;;;;2.40;1.23;;;11.30;99.90;;;;;;4958884;28;20211;-76
2022/12/23 12:45:37;;;;;;;1.98;1.55;;;11.30;99.90;;;;;;4943159;28;20172;-78
2022/12/23 12:48:21;;;;;;;2.25;1.42;;;11.30;99.90;;;;;;4956252;29;20204;-77
2022/12/23 12:51:10;;;;;;;2.17;1.40;;;11.30;99.90;;;;;;4970084;28;20406;-77
2022/12/23 12:53:44;;;;;;;2.97;1.50;;;11.30;99.90;;;;;;4956890;28;20267;-79
2022/12/23 12:56:50;;;;;;;2.05;1.52;;;11.30;99.90;;;;;;4940181;28;20285;-78
2022/12/23 12:59:21;;;;;;;2.15;1.20;;;11.30;99.90;;;;;;4913429;29;20182;-76
2022/12/23 13:02:21;;;;;;;1.88;1.27;;;11.30;99.90;;;;;;4943893;28;20199;-78
2022/12/23 13:05:05;;;;;;;2.00;1.75;;;11.30;99.90;;;;;;4922882;28;20262;-77
2022/12/23 13:07:37;;;;;;;2.40;1.48;;;11.20;99.90;;;;;;4955909;28;20232;-76
2022/12/23 13:10:21;;;;;;;2.42;1.58;;;11.30;99.90;;;;;;4939708;29;20173;-77
2022/12/23 13:13:03;;;;;;;3.00;1.30;;;11.30;99.90;;;;;;4958389;28;20255;-77
2022/12/23 13:15:40;;;;;;;1.52;1.10;;;11.30;99.90;;;;;;4962007;28;20207;-78
2022/12/23 13:18:08;;;;;;;2.42;1.27;;;11.30;99.90;;;;;;4961609;28;20202;-78
2022/12/23 13:20:40;;;;;;;1.98;1.55;;;11.30;99.90;;;;;;4962647;28;20183;-77
2022/12/23 13:23:14;;;;;;;1.70;1.40;;;11.30;99.90;;;;;;4955149;28;20203;-77
2022/12/23 13:25:50;;;;;;;2.20;1.60;;;11.30;99.90;;;;;;4951223;28;20183;-76
2022/12/23 13:28:44;;;;;;;2.55;1.60;;;11.30;99.90;;;;;;4945523;29;20207;-77
2022/12/23 13:31:52;;;;;;;1.52;1.25;;;11.30;99.90;;;;;;4949164;28;20206;-77
2022/12/23 13:34:27;;;;;;;2.65;1.30;;;11.30;99.90;;;;;;4953678;28;20183;-77
2022/12/23 13:37:04;;;;;;;1.35;1.20;;;11.30;99.90;;;;;;4961961;28;20185;-77
2022/12/23 13:39:36;;;;;;;2.13;1.30;;;11.30;99.90;;;;;;4951213;28;20196;-77